createdAt,value
2022-09-15T00:04:01.189Z,25.88
2022-09-15T00:09:05.113Z,22.85
2022-09-15T00:14:10.076Z,21.50
2022-09-15T00:19:12.865Z,19.35
2022-09-15T00:24:15.609Z,14.88
2022-09-15T00:29:20.764Z,19.20
2022-09-15T00:34:23.505Z,21.17
2022-09-15T00:39:26.287Z,21.05
2022-09-15T00:45:04.223Z,22.23
2022-09-15T00:50:11.835Z,21.05
2022-09-15T00:55:18.403Z,18.35
2022-09-15T01:00:25.994Z,17.63
2022-09-15T01:05:46.587Z,17.67
2022-09-15T01:10:52.000Z,20.55
2022-09-15T01:16:02.685Z,22.52
2022-09-15T01:21:13.207Z,23.00
2022-09-15T01:26:49.577Z,22.05
2022-09-15T01:32:16.332Z,24.38
2022-09-15T01:37:25.243Z,22.45
2022-09-15T01:42:31.536Z,23.98
2022-09-15T01:47:37.439Z,21.30
2022-09-15T01:52:44.244Z,24.65
2022-09-15T01:57:47.040Z,23.63
2022-09-15T02:02:57.190Z,22.95
2022-09-15T02:08:06.051Z,24.30
2022-09-15T02:13:15.634Z,26.02
2022-09-15T02:18:29.771Z,25.40
2022-09-15T02:23:37.604Z,25.45
2022-09-15T02:28:42.319Z,25.40
2022-09-15T02:33:50.399Z,22.92
2022-09-15T02:38:58.120Z,22.98
2022-09-15T02:44:00.907Z,21.38
2022-09-15T02:49:05.010Z,22.33
2022-09-15T02:54:08.171Z,21.00
2022-09-15T02:59:11.009Z,21.08
2022-09-15T03:04:15.335Z,20.23
2022-09-15T03:09:18.049Z,19.00
2022-09-15T03:14:20.756Z,18.63
2022-09-15T03:19:24.805Z,18.90
2022-09-15T03:24:27.690Z,19.45
2022-09-15T03:29:30.903Z,18.52
2022-09-15T03:34:35.282Z,17.58
2022-09-15T03:39:38.035Z,16.25
2022-09-15T03:44:40.873Z,16.42
2022-09-15T03:49:45.473Z,15.27
2022-09-15T03:54:49.699Z,15.15
2022-09-15T03:59:52.378Z,13.63
2022-09-15T04:04:56.899Z,11.82
2022-09-15T04:10:00.938Z,12.63
2022-09-15T04:15:05.017Z,13.07
2022-09-15T04:20:11.167Z,14.00
2022-09-15T04:25:13.855Z,14.15
2022-09-15T04:30:16.555Z,13.65
2022-09-15T04:35:22.007Z,16.02
2022-09-15T04:40:25.835Z,17.05
2022-09-15T04:45:28.699Z,18.05
2022-09-15T04:50:33.802Z,18.38
2022-09-15T04:55:38.627Z,19.70
2022-09-15T05:00:43.526Z,20.08
2022-09-15T05:05:48.972Z,20.67
2022-09-15T05:10:51.638Z,21.75
2022-09-15T05:15:54.490Z,19.48
2022-09-15T05:21:00.783Z,20.30
2022-09-15T05:26:05.799Z,23.27
2022-09-15T05:31:11.325Z,21.00
2022-09-15T05:36:17.211Z,22.30
2022-09-15T05:41:20.802Z,23.70
2022-09-15T05:46:25.958Z,23.10
2022-09-15T05:51:33.381Z,25.40
2022-09-15T05:56:36.184Z,25.17
2022-09-15T06:01:39.068Z,23.70
2022-09-15T06:06:43.243Z,24.95
2022-09-15T06:11:46.158Z,25.25
2022-09-15T06:16:48.887Z,25.85
2022-09-15T06:21:54.002Z,25.00
2022-09-15T06:26:56.738Z,26.92
2022-09-15T06:32:02.838Z,27.23
2022-09-15T06:37:08.036Z,28.67
2022-09-15T06:42:13.811Z,28.25
2022-09-15T06:47:17.915Z,29.00
2022-09-15T06:52:22.107Z,29.67
2022-09-15T06:57:25.003Z,31.27
2022-09-15T07:02:27.835Z,32.63
2022-09-15T07:07:32.313Z,32.13
2022-09-15T07:12:35.141Z,32.10
2022-09-15T07:17:37.919Z,29.33
2022-09-15T07:22:41.979Z,31.90
2022-09-15T07:27:44.907Z,30.80
2022-09-15T07:32:47.676Z,30.10
2022-09-15T07:37:52.406Z,28.30
2022-09-15T07:42:55.210Z,27.20
2022-09-15T07:47:58.140Z,23.70
2022-09-15T07:53:02.555Z,24.45
2022-09-15T07:58:05.333Z,26.30
2022-09-15T08:03:08.075Z,25.85
2022-09-15T08:08:12.216Z,24.30
2022-09-15T08:13:15.310Z,23.63
2022-09-15T08:18:19.169Z,23.70
2022-09-15T08:23:23.384Z,22.27
2022-09-15T08:28:26.845Z,24.02
2022-09-15T08:33:31.527Z,23.00
2022-09-15T08:38:35.674Z,22.45
2022-09-15T08:43:42.196Z,21.95
2022-09-15T08:48:49.294Z,22.23
2022-09-15T08:54:00.475Z,20.52
2022-09-15T08:59:03.205Z,21.23
2022-09-15T09:04:33.286Z,23.00
2022-09-15T09:09:43.763Z,25.02
2022-09-15T09:15:00.132Z,22.25
2022-09-15T09:20:26.226Z,18.23
2022-09-15T09:25:35.007Z,18.47
2022-09-15T09:30:38.215Z,19.27
2022-09-15T09:35:44.903Z,18.63
2022-09-15T09:40:50.167Z,16.23
2022-09-15T09:45:53.007Z,15.23
2022-09-15T09:50:55.990Z,15.27
2022-09-15T09:56:24.722Z,15.98
2022-09-15T10:01:27.617Z,14.98
2022-09-15T10:06:32.084Z,14.18
2022-09-15T10:11:43.970Z,13.18
2022-09-15T10:16:57.510Z,9.95
2022-09-15T10:22:03.051Z,10.85
2022-09-15T10:27:19.637Z,12.32
2022-09-15T10:32:28.899Z,11.18
2022-09-15T10:37:36.043Z,11.00
2022-09-15T10:42:50.844Z,10.18
2022-09-15T10:48:07.220Z,10.23
2022-09-15T10:53:18.319Z,9.63
2022-09-15T10:58:45.869Z,10.88
2022-09-15T11:04:12.519Z,9.23
2022-09-15T11:09:22.360Z,10.35
2022-09-15T11:14:39.515Z,9.00
2022-09-15T11:20:01.729Z,10.30
2022-09-15T11:25:13.779Z,9.65
2022-09-15T11:30:20.653Z,8.95
2022-09-15T11:35:33.793Z,8.55
2022-09-15T11:40:42.149Z,9.20
2022-09-15T11:45:48.600Z,8.07
2022-09-15T11:50:55.967Z,6.22
2022-09-15T11:56:08.218Z,6.00
2022-09-15T12:01:20.384Z,5.60
2022-09-15T12:06:30.169Z,5.55
2022-09-15T12:11:36.526Z,5.55
2022-09-15T12:16:41.405Z,5.50
2022-09-15T12:21:51.145Z,4.88
2022-09-15T12:26:53.965Z,4.85
2022-09-15T12:37:26.763Z,5.63
2022-09-15T12:42:32.180Z,4.75
2022-09-15T12:47:38.993Z,5.18
2022-09-15T12:52:48.296Z,5.78
2022-09-15T12:57:54.095Z,5.32
2022-09-15T13:02:57.405Z,4.43
2022-09-15T13:08:01.687Z,3.53
2022-09-15T13:13:21.594Z,4.20
2022-09-15T13:18:26.292Z,5.32
2022-09-15T13:23:36.631Z,4.32
2022-09-15T13:28:40.396Z,4.60
2022-09-15T13:40:09.570Z,5.85
2022-09-15T13:45:25.549Z,5.57
2022-09-15T13:50:35.325Z,3.97
2022-09-15T13:55:42.627Z,4.50
2022-09-15T14:00:55.063Z,3.65
2022-09-15T14:05:58.697Z,3.67
2022-09-15T14:11:08.215Z,3.05
2022-09-15T14:16:24.607Z,3.13
2022-09-15T14:21:29.679Z,2.97
2022-09-15T14:26:36.386Z,2.70
2022-09-15T14:31:40.987Z,2.80
2022-09-15T14:36:43.947Z,2.72
2022-09-15T14:41:49.672Z,2.78
2022-09-15T14:46:52.991Z,2.13
2022-09-15T14:51:55.731Z,2.97
2022-09-15T14:57:03.676Z,2.22
2022-09-15T15:02:20.481Z,1.90
2022-09-15T15:07:26.209Z,1.80
2022-09-15T15:12:34.653Z,2.50
2022-09-15T15:17:40.009Z,2.50
2022-09-15T15:22:44.547Z,2.78
2022-09-15T15:27:53.006Z,2.35
2022-09-15T15:32:56.658Z,2.47
2022-09-15T15:38:05.046Z,2.67
2022-09-15T15:43:23.393Z,3.05
2022-09-15T15:48:26.753Z,2.38
2022-09-15T15:53:29.520Z,2.53
2022-09-15T15:58:33.658Z,3.08
2022-09-15T16:03:36.379Z,2.83
2022-09-15T16:08:41.287Z,2.85
2022-09-15T16:13:45.710Z,2.75
2022-09-15T16:18:49.035Z,3.20
2022-09-15T16:23:51.784Z,2.80
2022-09-15T16:28:55.910Z,2.80
2022-09-15T16:33:58.762Z,3.13
2022-09-15T16:39:01.487Z,3.30
2022-09-15T16:44:07.507Z,2.88
2022-09-15T16:49:10.291Z,2.17
2022-09-15T16:54:16.468Z,2.83
2022-09-15T16:59:21.803Z,2.93
2022-09-15T17:04:24.523Z,2.33
2022-09-15T17:09:27.791Z,2.90
2022-09-15T17:14:33.095Z,3.20
2022-09-15T17:19:35.776Z,3.80
2022-09-15T17:24:38.563Z,2.00
2022-09-15T17:29:42.600Z,2.40
2022-09-15T17:34:46.176Z,3.22
2022-09-15T17:39:49.932Z,2.85
2022-09-15T17:44:54.054Z,3.38
2022-09-15T17:49:56.771Z,2.75
2022-09-15T17:54:59.471Z,3.00
2022-09-15T18:00:03.784Z,2.58
2022-09-15T18:05:10.683Z,3.25
2022-09-15T18:10:13.677Z,2.72
2022-09-15T18:15:21.128Z,2.33
2022-09-15T18:20:26.188Z,2.40
2022-09-15T18:25:35.783Z,3.05
2022-09-15T18:30:41.667Z,3.00
2022-09-15T18:35:45.311Z,2.88
2022-09-15T18:40:49.316Z,2.10
2022-09-15T18:45:55.073Z,2.60
2022-09-15T18:50:58.090Z,2.35
2022-09-15T18:56:00.878Z,3.20
2022-09-15T19:01:05.183Z,2.22
2022-09-15T19:06:08.599Z,2.40
2022-09-15T19:11:11.323Z,1.80
2022-09-15T19:16:15.628Z,1.88
2022-09-15T19:21:18.515Z,1.92
2022-09-15T19:26:21.599Z,2.08
2022-09-15T19:31:28.226Z,2.13
2022-09-15T19:36:31.578Z,2.22
2022-09-15T19:41:34.299Z,1.58
2022-09-15T19:46:38.474Z,2.15
2022-09-15T19:51:41.451Z,2.05
2022-09-15T19:56:44.174Z,2.13
2022-09-15T20:01:48.553Z,1.90
2022-09-15T20:06:51.559Z,2.22
2022-09-15T20:11:54.218Z,2.30
2022-09-15T20:17:01.131Z,2.38
2022-09-15T20:22:04.846Z,2.70
2022-09-15T20:27:08.809Z,2.53
2022-09-15T20:32:13.233Z,2.05
2022-09-15T20:37:15.984Z,1.92
2022-09-15T20:42:18.818Z,4.10
2022-09-15T20:47:23.068Z,2.47
2022-09-15T20:52:29.482Z,2.15
2022-09-15T20:57:33.161Z,2.72
2022-09-15T21:02:37.511Z,2.40
2022-09-15T21:07:40.455Z,1.88
2022-09-15T21:12:43.211Z,2.20
2022-09-15T21:17:47.491Z,2.65
2022-09-15T21:22:54.381Z,2.13
2022-09-15T21:27:57.166Z,2.03
2022-09-15T21:33:01.979Z,2.65
2022-09-15T21:38:05.042Z,2.00
2022-09-15T21:43:07.818Z,4.28
2022-09-15T21:48:14.117Z,2.72
2022-09-15T21:53:16.882Z,1.55
2022-09-15T21:58:20.937Z,2.08
2022-09-15T22:03:25.418Z,1.60
2022-09-15T22:08:29.105Z,2.40
2022-09-15T22:13:31.946Z,2.47
2022-09-15T22:18:38.275Z,2.25
2022-09-15T22:23:41.817Z,2.90
2022-09-15T22:28:45.118Z,2.05
2022-09-15T22:33:49.425Z,2.47
2022-09-15T22:38:52.334Z,2.50
2022-09-15T22:43:55.769Z,2.20
2022-09-15T22:49:00.825Z,2.97
2022-09-15T22:54:03.816Z,1.90
2022-09-15T22:59:06.481Z,2.35
2022-09-15T23:04:10.525Z,2.00
2022-09-15T23:09:15.459Z,1.42
2022-09-15T23:14:19.018Z,1.58
2022-09-15T23:19:24.161Z,1.73
2022-09-15T23:24:26.920Z,1.52
2022-09-15T23:29:29.716Z,1.48
2022-09-15T23:34:33.763Z,1.73
2022-09-15T23:39:36.561Z,1.50
2022-09-15T23:44:39.333Z,1.63
2022-09-15T23:49:43.375Z,2.10
2022-09-15T23:54:46.155Z,1.70
2022-09-15T23:59:48.842Z,1.88
